createdAt,value
2023-07-25T00:00:30.758Z,2.90
2023-07-25T00:01:02.282Z,2.67
2023-07-25T00:01:33.954Z,2.88
2023-07-25T00:02:05.764Z,2.97
2023-07-25T00:02:37.405Z,3.20
2023-07-25T00:03:09.075Z,2.67
2023-07-25T00:03:40.614Z,2.75
2023-07-25T00:04:12.084Z,2.67
2023-07-25T00:04:43.885Z,3.08
2023-07-25T00:05:15.324Z,3.00
2023-07-25T00:05:46.744Z,2.70
2023-07-25T00:06:18.761Z,2.65
2023-07-25T00:06:50.180Z,3.63
2023-07-25T00:07:21.672Z,3.47
2023-07-25T00:07:53.148Z,3.22
2023-07-25T00:08:24.565Z,3.28
2023-07-25T00:08:56.010Z,2.55
2023-07-25T00:09:27.518Z,3.30
2023-07-25T00:09:59.457Z,3.15
2023-07-25T00:10:33.246Z,3.17
2023-07-25T00:11:04.888Z,3.10
2023-07-25T00:11:36.694Z,3.05
2023-07-25T00:12:08.196Z,2.90
2023-07-25T00:12:40.263Z,2.50
2023-07-25T00:13:11.845Z,3.22
2023-07-25T00:13:43.311Z,2.85
2023-07-25T00:14:14.816Z,2.40
2023-07-25T00:14:46.218Z,2.93
2023-07-25T00:15:17.710Z,2.95
2023-07-25T00:15:51.230Z,2.45
2023-07-25T00:16:22.786Z,2.85
2023-07-25T00:16:54.187Z,2.60
2023-07-25T00:17:25.749Z,2.70
2023-07-25T00:17:58.053Z,2.95
2023-07-25T00:18:29.578Z,3.22
2023-07-25T00:19:01.014Z,2.78
2023-07-25T00:19:32.512Z,2.53
2023-07-25T00:20:05.876Z,2.20
2023-07-25T00:20:37.319Z,2.28
2023-07-25T00:21:08.757Z,2.83
2023-07-25T00:21:40.200Z,3.20
2023-07-25T00:22:11.843Z,3.00
2023-07-25T00:22:43.269Z,2.70
2023-07-25T00:23:15.030Z,2.63
2023-07-25T00:23:46.482Z,3.15
2023-07-25T00:24:18.124Z,2.60
2023-07-25T00:24:49.846Z,2.47
2023-07-25T00:25:21.548Z,3.00
2023-07-25T00:25:53.081Z,2.83
2023-07-25T00:26:24.520Z,2.63
2023-07-25T00:26:55.931Z,3.30
2023-07-25T00:27:27.480Z,2.80
2023-07-25T00:27:59.262Z,2.40
2023-07-25T00:28:30.714Z,2.60
2023-07-25T00:29:02.176Z,3.00
2023-07-25T00:29:33.601Z,2.60
2023-07-25T00:30:06.482Z,2.33
2023-07-25T00:30:37.917Z,3.03
2023-07-25T00:31:09.442Z,2.40
2023-07-25T00:31:40.910Z,2.80
2023-07-25T00:32:12.491Z,3.50
2023-07-25T00:32:44.089Z,2.75
2023-07-25T00:33:15.538Z,2.60
2023-07-25T00:33:47.038Z,2.50
2023-07-25T00:34:18.668Z,3.00
2023-07-25T00:34:53.161Z,3.25
2023-07-25T00:35:24.652Z,3.28
2023-07-25T00:35:56.084Z,2.83
2023-07-25T00:36:27.543Z,3.20
2023-07-25T00:36:58.971Z,2.70
2023-07-25T00:37:30.961Z,2.92
2023-07-25T00:38:05.390Z,2.58
2023-07-25T00:38:36.825Z,2.70
2023-07-25T00:39:08.226Z,2.80
2023-07-25T00:39:39.648Z,3.00
2023-07-25T00:40:11.609Z,3.50
2023-07-25T00:40:43.055Z,2.90
2023-07-25T00:41:14.626Z,2.37
2023-07-25T00:41:46.157Z,3.10
2023-07-25T00:42:17.747Z,2.65
2023-07-25T00:42:54.968Z,3.00
2023-07-25T00:43:26.550Z,2.53
2023-07-25T00:43:58.076Z,2.30
2023-07-25T00:44:29.633Z,3.00
2023-07-25T00:45:01.184Z,2.67
2023-07-25T00:45:32.819Z,2.33
2023-07-25T00:46:05.624Z,2.70
2023-07-25T00:46:37.155Z,3.33
2023-07-25T00:47:08.684Z,3.47
2023-07-25T00:47:40.168Z,2.65
2023-07-25T00:48:11.664Z,2.53
2023-07-25T00:48:44.960Z,3.53
2023-07-25T00:49:16.728Z,3.15
2023-07-25T00:49:48.711Z,2.78
2023-07-25T00:50:20.294Z,2.63
2023-07-25T00:50:52.219Z,2.85
2023-07-25T00:51:23.763Z,2.60
2023-07-25T00:51:55.788Z,2.70
2023-07-25T00:52:27.603Z,3.38
2023-07-25T00:53:00.310Z,2.65
2023-07-25T00:53:31.927Z,2.88
2023-07-25T00:54:03.607Z,3.33
2023-07-25T00:54:35.480Z,2.97
2023-07-25T00:55:07.948Z,2.78
2023-07-25T00:55:39.991Z,2.92
2023-07-25T00:56:12.754Z,2.90
2023-07-25T00:56:44.258Z,2.92
2023-07-25T00:57:17.938Z,2.70
2023-07-25T00:57:49.491Z,3.33
2023-07-25T00:58:20.964Z,2.80
2023-07-25T00:58:52.486Z,3.08
2023-07-25T00:59:23.909Z,2.90
2023-07-25T00:59:55.314Z,2.53
2023-07-25T01:00:26.794Z,2.95
2023-07-25T01:01:05.590Z,3.50
2023-07-25T01:01:37.843Z,2.60
2023-07-25T01:02:10.591Z,3.80
2023-07-25T01:02:42.243Z,2.60
2023-07-25T01:03:14.850Z,2.42
2023-07-25T01:03:46.428Z,2.88
2023-07-25T01:04:18.244Z,3.05
2023-07-25T01:04:49.762Z,2.95
2023-07-25T01:05:22.828Z,2.60
2023-07-25T01:05:54.944Z,3.10
2023-07-25T01:06:27.797Z,3.42
2023-07-25T01:07:00.831Z,2.70
2023-07-25T01:07:32.730Z,3.25
2023-07-25T01:08:04.412Z,2.60
2023-07-25T01:08:48.871Z,3.15
2023-07-25T01:09:43.636Z,3.22
2023-07-25T01:10:16.018Z,3.33
2023-07-25T01:10:47.502Z,3.22
2023-07-25T01:11:19.664Z,2.83
2023-07-25T01:11:51.099Z,3.25
2023-07-25T01:12:22.900Z,3.10
2023-07-25T01:12:54.338Z,3.50
2023-07-25T01:13:26.136Z,2.88
2023-07-25T01:13:57.814Z,3.30
2023-07-25T01:14:31.433Z,3.58
2023-07-25T01:15:03.249Z,3.42
2023-07-25T01:15:35.633Z,3.70
2023-07-25T01:16:10.491Z,3.38
2023-07-25T01:16:42.103Z,3.42
2023-07-25T01:17:16.591Z,3.33
2023-07-25T01:17:48.092Z,3.30
2023-07-25T01:18:20.258Z,3.53
2023-07-25T01:18:52.730Z,3.40
2023-07-25T01:19:29.777Z,2.83
2023-07-25T01:20:01.583Z,3.10
2023-07-25T01:20:35.698Z,3.15
2023-07-25T01:21:08.473Z,2.88
2023-07-25T01:21:39.985Z,3.47
2023-07-25T01:22:12.442Z,2.97
2023-07-25T01:22:46.360Z,3.20
2023-07-25T01:23:18.703Z,2.92
2023-07-25T01:23:51.075Z,3.15
2023-07-25T01:24:22.824Z,3.45
2023-07-25T01:24:56.165Z,3.03
2023-07-25T01:25:27.764Z,2.90
2023-07-25T01:25:59.340Z,2.92
2023-07-25T01:26:30.863Z,2.72
2023-07-25T01:27:03.092Z,3.20
2023-07-25T01:27:34.505Z,3.28
2023-07-25T01:28:06.461Z,3.50
2023-07-25T01:28:38.770Z,3.20
2023-07-25T01:29:10.247Z,3.22
2023-07-25T01:29:41.915Z,3.97
2023-07-25T01:30:13.381Z,2.80
2023-07-25T01:30:45.030Z,4.00
2023-07-25T01:31:16.505Z,3.10
2023-07-25T01:31:47.917Z,2.97
2023-07-25T01:32:19.407Z,3.08
2023-07-25T01:32:52.476Z,2.85
2023-07-25T01:33:24.435Z,3.30
2023-07-25T01:33:55.928Z,3.70
2023-07-25T01:34:27.415Z,4.03
2023-07-25T01:34:59.652Z,3.15
2023-07-25T01:35:31.116Z,3.37
2023-07-25T01:36:02.609Z,3.38
2023-07-25T01:36:34.054Z,3.45
2023-07-25T01:37:06.911Z,3.70
2023-07-25T01:37:38.387Z,3.00
2023-07-25T01:38:09.841Z,2.88
2023-07-25T01:38:41.259Z,2.88
2023-07-25T01:39:12.665Z,2.97
2023-07-25T01:39:45.040Z,2.72
2023-07-25T01:40:16.537Z,2.67
2023-07-25T01:40:48.211Z,2.80
2023-07-25T01:41:19.743Z,3.15
2023-07-25T01:41:51.148Z,3.00
2023-07-25T01:42:22.669Z,2.67
2023-07-25T01:42:54.184Z,3.45
2023-07-25T01:43:25.649Z,3.30
2023-07-25T01:43:58.362Z,3.35
2023-07-25T01:44:29.906Z,3.00
2023-07-25T01:45:01.287Z,3.38
2023-07-25T01:45:32.863Z,2.85
2023-07-25T01:46:04.418Z,3.00
2023-07-25T01:46:36.074Z,2.88
2023-07-25T01:47:07.553Z,3.30
2023-07-25T01:47:39.061Z,3.60
2023-07-25T01:48:10.557Z,3.28
2023-07-25T01:48:41.966Z,2.92
2023-07-25T01:49:13.929Z,3.22
2023-07-25T01:49:45.360Z,2.70
2023-07-25T01:50:17.884Z,3.17
2023-07-25T01:50:49.368Z,3.08
2023-07-25T01:51:20.884Z,3.73
2023-07-25T01:51:52.466Z,3.17
2023-07-25T01:52:24.072Z,2.95
2023-07-25T01:52:55.764Z,3.28
2023-07-25T01:53:27.209Z,3.03
2023-07-25T01:54:00.014Z,3.30
2023-07-25T01:54:31.470Z,2.85
2023-07-25T01:55:03.515Z,3.10
2023-07-25T01:55:37.602Z,2.30
2023-07-25T01:56:09.040Z,2.80
2023-07-25T01:56:40.525Z,2.60
2023-07-25T01:57:12.045Z,2.95
2023-07-25T01:57:43.549Z,4.90
2023-07-25T01:58:14.980Z,3.30
2023-07-25T01:58:46.498Z,3.03
2023-07-25T01:59:18.586Z,3.22
2023-07-25T01:59:50.803Z,3.25
2023-07-25T02:00:22.376Z,2.88
2023-07-25T02:01:00.576Z,3.17
2023-07-25T02:01:32.296Z,3.10
2023-07-25T02:02:04.129Z,2.80
2023-07-25T02:02:35.680Z,3.08
2023-07-25T02:03:07.266Z,3.05
2023-07-25T02:03:38.711Z,3.08
2023-07-25T02:04:10.142Z,3.38
2023-07-25T02:04:41.593Z,2.63
2023-07-25T02:05:13.026Z,3.72
2023-07-25T02:05:44.576Z,3.55
2023-07-25T02:06:16.097Z,3.65
2023-07-25T02:06:47.558Z,3.22
2023-07-25T02:07:19.016Z,3.20
2023-07-25T02:07:50.459Z,3.00
2023-07-25T02:08:21.897Z,3.13
2023-07-25T02:08:53.313Z,3.22
2023-07-25T02:09:24.805Z,3.13
2023-07-25T02:09:56.267Z,2.85
2023-07-25T02:10:28.722Z,3.22
2023-07-25T02:11:00.324Z,3.25
2023-07-25T02:11:31.841Z,3.35
2023-07-25T02:12:03.816Z,2.80
2023-07-25T02:12:35.256Z,3.23
2023-07-25T02:13:06.725Z,3.30
2023-07-25T02:13:38.271Z,3.33
2023-07-25T02:14:09.680Z,3.45
2023-07-25T02:14:41.143Z,3.28
2023-07-25T02:15:12.648Z,3.00
2023-07-25T02:15:44.198Z,2.60
2023-07-25T02:16:15.855Z,3.30
2023-07-25T02:16:47.396Z,3.42
2023-07-25T02:17:20.659Z,2.78
2023-07-25T02:17:52.969Z,2.80
2023-07-25T02:18:24.546Z,3.03
2023-07-25T02:18:56.068Z,3.47
2023-07-25T02:19:27.591Z,3.60
2023-07-25T02:19:59.070Z,3.30
2023-07-25T02:20:33.673Z,3.05
2023-07-25T02:21:05.176Z,3.88
2023-07-25T02:21:36.593Z,3.40
2023-07-25T02:22:08.452Z,3.22
2023-07-25T02:22:39.930Z,2.58
2023-07-25T02:23:11.450Z,3.23
2023-07-25T02:23:43.000Z,3.25
2023-07-25T02:24:14.535Z,3.08
2023-07-25T02:24:46.045Z,4.13
2023-07-25T02:25:17.765Z,3.22
2023-07-25T02:25:49.215Z,4.28
2023-07-25T02:26:20.852Z,3.90
2023-07-25T02:26:52.255Z,3.35
2023-07-25T02:27:23.736Z,3.85
2023-07-25T02:27:55.433Z,4.53
2023-07-25T02:28:26.977Z,4.00
2023-07-25T02:29:00.811Z,3.28
2023-07-25T02:29:32.282Z,3.50
2023-07-25T02:30:04.007Z,3.95
2023-07-25T02:30:35.567Z,3.03
2023-07-25T02:31:07.154Z,3.33
2023-07-25T02:31:38.782Z,3.85
2023-07-25T02:32:10.233Z,3.30
2023-07-25T02:32:41.742Z,2.95
2023-07-25T02:33:13.903Z,4.30
2023-07-25T02:33:45.354Z,4.23
2023-07-25T02:34:17.287Z,3.75
2023-07-25T02:34:48.809Z,5.45
2023-07-25T02:35:20.476Z,4.10
2023-07-25T02:35:51.885Z,3.75
2023-07-25T02:36:23.329Z,3.58
2023-07-25T02:36:54.760Z,4.50
2023-07-25T02:37:26.211Z,4.28
2023-07-25T02:38:46.785Z,3.80
2023-07-25T02:39:18.202Z,3.50
2023-07-25T02:39:49.596Z,3.35
2023-07-25T02:40:21.109Z,3.45
2023-07-25T02:40:52.589Z,3.45
2023-07-25T02:41:24.027Z,3.03
2023-07-25T02:41:55.442Z,4.13
2023-07-25T02:42:26.852Z,4.05
2023-07-25T02:42:58.504Z,4.07
2023-07-25T02:43:30.165Z,3.47
2023-07-25T02:44:01.933Z,3.55
2023-07-25T02:44:33.329Z,3.43
2023-07-25T02:45:05.168Z,3.13
2023-07-25T02:45:36.712Z,3.22
2023-07-25T02:46:08.172Z,3.65
2023-07-25T02:46:39.597Z,3.80
2023-07-25T02:47:11.107Z,3.70
2023-07-25T02:47:42.808Z,3.72
2023-07-25T02:48:14.315Z,3.75
2023-07-25T02:48:45.764Z,3.00
2023-07-25T02:49:17.402Z,3.00
2023-07-25T02:49:48.828Z,3.13
2023-07-25T02:50:20.285Z,3.75
2023-07-25T02:50:51.772Z,3.05
2023-07-25T02:51:23.286Z,3.90
2023-07-25T02:51:54.748Z,3.72
2023-07-25T02:52:26.246Z,3.53
2023-07-25T02:52:57.691Z,3.67
2023-07-25T02:53:29.244Z,3.38
2023-07-25T02:54:00.698Z,2.85
2023-07-25T02:54:32.148Z,3.58
2023-07-25T02:55:04.576Z,3.63
2023-07-25T02:55:37.872Z,3.80
2023-07-25T02:56:09.262Z,3.75
2023-07-25T02:56:40.682Z,3.50
2023-07-25T02:57:12.370Z,4.07
2023-07-25T02:57:43.783Z,3.67
2023-07-25T02:58:15.230Z,3.05
2023-07-25T02:58:46.699Z,3.70
2023-07-25T02:59:20.241Z,3.53
2023-07-25T02:59:51.928Z,3.92
2023-07-25T03:00:23.764Z,3.10
2023-07-25T03:00:55.341Z,3.50
2023-07-25T03:01:26.920Z,2.97
2023-07-25T03:01:58.665Z,3.25
2023-07-25T03:02:30.179Z,3.63
2023-07-25T03:03:01.822Z,3.05
2023-07-25T03:03:33.302Z,3.00
2023-07-25T03:04:04.934Z,3.95
2023-07-25T03:04:36.431Z,3.42
2023-07-25T03:05:09.292Z,3.10
2023-07-25T03:05:40.813Z,3.57
2023-07-25T03:06:12.482Z,2.95
2023-07-25T03:06:43.937Z,3.15
2023-07-25T03:07:15.371Z,3.13
2023-07-25T03:07:46.867Z,2.78
2023-07-25T03:08:18.454Z,3.20
2023-07-25T03:08:49.947Z,3.10
2023-07-25T03:09:21.345Z,3.13
2023-07-25T03:09:52.712Z,3.88
2023-07-25T03:10:24.329Z,3.03
2023-07-25T03:10:55.759Z,3.30
2023-07-25T03:11:27.203Z,2.65
2023-07-25T03:12:01.654Z,3.60
2023-07-25T03:12:33.145Z,3.72
2023-07-25T03:13:04.701Z,4.68
2023-07-25T03:13:36.165Z,3.35
2023-07-25T03:14:07.630Z,2.80
2023-07-25T03:14:39.024Z,3.35
2023-07-25T03:15:10.730Z,4.05
2023-07-25T03:15:42.424Z,3.15
2023-07-25T03:16:13.980Z,3.13
2023-07-25T03:16:45.526Z,3.10
2023-07-25T03:17:16.984Z,3.78
2023-07-25T03:17:48.954Z,3.47
2023-07-25T03:18:20.538Z,3.35
2023-07-25T03:18:52.084Z,4.22
2023-07-25T03:19:23.671Z,3.45
2023-07-25T03:19:55.378Z,3.03
2023-07-25T03:20:26.906Z,3.38
2023-07-25T03:21:01.306Z,2.80
2023-07-25T03:21:33.257Z,3.07
2023-07-25T03:22:05.181Z,3.50
2023-07-25T03:22:36.628Z,3.55
2023-07-25T03:23:08.120Z,3.50
2023-07-25T03:23:39.918Z,3.47
2023-07-25T03:24:11.361Z,3.10
2023-07-25T03:24:42.926Z,3.65
2023-07-25T03:25:14.330Z,3.42
2023-07-25T03:25:45.738Z,3.58
2023-07-25T03:26:17.716Z,3.55
2023-07-25T03:26:49.365Z,3.63
2023-07-25T03:27:20.966Z,3.90
2023-07-25T03:27:52.831Z,3.33
2023-07-25T03:28:24.391Z,3.92
2023-07-25T03:28:55.837Z,3.53
2023-07-25T03:29:27.402Z,3.47
2023-07-25T03:29:58.891Z,3.08
2023-07-25T03:30:30.448Z,3.25
2023-07-25T03:31:02.082Z,2.70
2023-07-25T03:31:33.780Z,3.25
2023-07-25T03:32:05.783Z,3.63
2023-07-25T03:32:37.323Z,3.17
2023-07-25T03:33:09.028Z,3.38
2023-07-25T03:33:40.541Z,3.63
2023-07-25T03:34:12.055Z,3.63
2023-07-25T03:34:43.865Z,2.97
2023-07-25T03:35:15.294Z,3.55
2023-07-25T03:35:46.869Z,3.50
2023-07-25T03:36:18.379Z,4.40
2023-07-25T03:36:49.843Z,4.60
2023-07-25T03:37:21.350Z,3.70
2023-07-25T03:37:52.778Z,3.90
2023-07-25T03:38:24.252Z,3.85
2023-07-25T03:38:55.679Z,4.22
2023-07-25T03:39:27.232Z,3.28
2023-07-25T03:40:01.604Z,3.60
2023-07-25T03:40:33.005Z,3.38
2023-07-25T03:41:04.716Z,3.75
2023-07-25T03:41:36.372Z,3.65
2023-07-25T03:42:07.805Z,3.50
2023-07-25T03:42:39.286Z,3.77
2023-07-25T03:43:10.727Z,3.47
2023-07-25T03:43:42.209Z,3.45
2023-07-25T03:44:18.761Z,3.40
2023-07-25T03:44:52.309Z,3.20
2023-07-25T03:45:23.970Z,2.75
2023-07-25T03:45:55.512Z,3.90
2023-07-25T03:46:27.049Z,3.80
2023-07-25T03:46:58.827Z,3.60
2023-07-25T03:47:30.340Z,3.40
2023-07-25T03:48:01.847Z,3.60
2023-07-25T03:48:33.412Z,3.53
2023-07-25T03:49:04.804Z,3.53
2023-07-25T03:49:36.225Z,3.03
2023-07-25T03:50:08.106Z,2.70
2023-07-25T03:50:39.556Z,2.95
2023-07-25T03:51:14.903Z,3.00
2023-07-25T03:51:46.402Z,3.33
2023-07-25T03:52:17.869Z,3.60
2023-07-25T03:52:49.543Z,2.85
2023-07-25T03:53:21.018Z,2.80
2023-07-25T03:53:52.541Z,3.15
2023-07-25T03:54:25.144Z,2.90
2023-07-25T03:54:56.631Z,3.35
2023-07-25T03:55:28.462Z,3.20
2023-07-25T03:56:00.089Z,3.97
2023-07-25T03:56:31.626Z,4.03
2023-07-25T03:57:03.359Z,3.65
2023-07-25T03:57:34.799Z,3.22
2023-07-25T03:58:06.509Z,3.05
2023-07-25T03:58:38.025Z,3.47
2023-07-25T03:59:09.613Z,3.40
2023-07-25T03:59:41.026Z,3.17
2023-07-25T04:00:13.318Z,3.10
2023-07-25T04:00:44.972Z,3.55
2023-07-25T04:01:16.509Z,3.95
2023-07-25T04:01:48.151Z,3.38
2023-07-25T04:02:20.695Z,3.10
2023-07-25T04:03:04.986Z,3.28
2023-07-25T04:03:41.246Z,2.75
2023-07-25T04:04:13.043Z,3.30
2023-07-25T04:04:44.562Z,3.00
2023-07-25T04:05:16.405Z,3.05
2023-07-25T04:05:47.843Z,3.22
2023-07-25T04:06:19.920Z,3.80
2023-07-25T04:06:51.440Z,3.10
2023-07-25T04:07:22.895Z,3.90
2023-07-25T04:07:54.321Z,3.45
2023-07-25T04:08:25.840Z,4.50
2023-07-25T04:08:58.541Z,3.38
2023-07-25T04:09:29.993Z,3.00
2023-07-25T04:10:01.878Z,3.13
2023-07-25T04:10:33.345Z,3.30
2023-07-25T04:11:05.051Z,3.30
2023-07-25T04:11:36.533Z,3.35
2023-07-25T04:12:08.395Z,3.47
2023-07-25T04:12:39.849Z,2.85
2023-07-25T04:13:11.354Z,3.05
2023-07-25T04:13:42.798Z,3.83
2023-07-25T04:14:14.274Z,4.25
2023-07-25T04:14:45.698Z,3.20
2023-07-25T04:15:17.223Z,2.78
2023-07-25T04:15:48.754Z,2.72
2023-07-25T04:16:20.224Z,4.07
2023-07-25T04:16:51.894Z,2.90
2023-07-25T04:17:23.402Z,2.88
2023-07-25T04:17:54.950Z,3.10
2023-07-25T04:18:26.457Z,2.75
2023-07-25T04:18:57.970Z,3.88
2023-07-25T04:19:29.405Z,3.30
2023-07-25T04:20:00.901Z,2.90
2023-07-25T04:20:32.447Z,2.95
2023-07-25T04:21:04.028Z,2.80
2023-07-25T04:21:35.489Z,3.67
2023-07-25T04:22:06.959Z,3.58
2023-07-25T04:22:39.260Z,3.50
2023-07-25T04:23:11.395Z,3.05
2023-07-25T04:23:43.879Z,3.72
2023-07-25T04:24:15.423Z,2.85
2023-07-25T04:24:46.892Z,2.95
2023-07-25T04:25:18.321Z,3.40
2023-07-25T04:25:50.735Z,3.45
2023-07-25T04:26:22.146Z,3.20
2023-07-25T04:26:53.638Z,3.63
2023-07-25T04:27:25.156Z,3.22
2023-07-25T04:27:56.673Z,3.42
2023-07-25T04:28:29.893Z,3.10
2023-07-25T04:29:03.776Z,2.92
2023-07-25T04:29:35.187Z,2.63
2023-07-25T04:30:07.213Z,2.67
2023-07-25T04:30:38.750Z,3.30
2023-07-25T04:31:10.322Z,2.78
2023-07-25T04:31:41.792Z,3.88
2023-07-25T04:32:13.327Z,3.33
2023-07-25T04:32:44.769Z,3.30
2023-07-25T04:33:16.254Z,3.35
2023-07-25T04:33:47.799Z,3.33
2023-07-25T04:34:19.363Z,3.75
2023-07-25T04:34:51.086Z,3.17
2023-07-25T04:35:22.606Z,3.13
2023-07-25T04:35:54.117Z,2.80
2023-07-25T04:36:29.883Z,3.60
2023-07-25T04:37:01.608Z,3.25
2023-07-25T04:37:33.083Z,3.47
2023-07-25T04:38:04.551Z,3.50
2023-07-25T04:38:36.014Z,2.88
2023-07-25T04:39:07.549Z,3.05
2023-07-25T04:39:39.029Z,3.45
2023-07-25T04:40:11.068Z,3.22
2023-07-25T04:40:45.531Z,2.97
2023-07-25T04:41:17.044Z,2.70
2023-07-25T04:41:48.446Z,3.20
2023-07-25T04:42:19.861Z,3.55
2023-07-25T04:42:51.469Z,3.10
2023-07-25T04:43:22.914Z,2.88
2023-07-25T04:43:54.381Z,3.05
2023-07-25T04:44:25.878Z,2.50
2023-07-25T04:44:59.886Z,3.08
2023-07-25T04:45:31.321Z,3.40
2023-07-25T04:46:02.789Z,2.72
2023-07-25T04:46:34.264Z,3.47
2023-07-25T04:47:05.777Z,3.47
2023-07-25T04:47:37.342Z,2.70
2023-07-25T04:48:08.911Z,3.20
2023-07-25T04:48:40.437Z,2.83
2023-07-25T04:49:14.785Z,3.20
2023-07-25T04:49:46.251Z,3.22
2023-07-25T04:50:17.792Z,3.13
2023-07-25T04:50:49.238Z,3.72
2023-07-25T04:51:20.764Z,4.28
2023-07-25T04:51:52.272Z,3.43
2023-07-25T04:52:23.790Z,2.72
2023-07-25T04:52:55.316Z,3.65
2023-07-25T04:53:26.987Z,3.42
2023-07-25T04:53:58.596Z,3.90
2023-07-25T04:54:30.092Z,3.55
2023-07-25T04:55:01.496Z,2.92
2023-07-25T04:55:32.913Z,3.58
2023-07-25T04:56:04.521Z,3.83
2023-07-25T04:56:36.223Z,2.90
2023-07-25T04:57:07.714Z,3.27
2023-07-25T04:57:39.292Z,3.50
2023-07-25T04:58:11.034Z,3.85
2023-07-25T04:58:42.537Z,3.38
2023-07-25T04:59:13.994Z,3.80
2023-07-25T04:59:45.417Z,3.20
2023-07-25T05:00:17.207Z,3.83
2023-07-25T05:00:48.727Z,3.05
2023-07-25T05:01:20.233Z,3.42
2023-07-25T05:01:51.793Z,3.28
2023-07-25T05:02:23.645Z,3.60
2023-07-25T05:02:55.145Z,3.40
2023-07-25T05:03:27.312Z,3.30
2023-07-25T05:03:58.952Z,3.47
2023-07-25T05:04:30.397Z,3.60
2023-07-25T05:05:01.958Z,3.95
2023-07-25T05:05:33.421Z,3.70
2023-07-25T05:06:05.014Z,3.63
2023-07-25T05:06:36.477Z,3.33
2023-07-25T05:07:08.676Z,3.35
2023-07-25T05:07:40.042Z,3.47
2023-07-25T05:08:11.494Z,3.28
2023-07-25T05:08:42.864Z,4.72
2023-07-25T05:09:14.307Z,3.30
2023-07-25T05:09:45.971Z,4.15
2023-07-25T05:10:17.470Z,3.30
2023-07-25T05:10:51.503Z,3.55
2023-07-25T05:11:22.915Z,3.85
2023-07-25T05:11:54.454Z,3.80
2023-07-25T05:12:25.944Z,3.50
2023-07-25T05:12:57.709Z,3.70
2023-07-25T05:13:29.247Z,3.35
2023-07-25T05:14:01.218Z,3.75
2023-07-25T05:14:32.673Z,4.00
2023-07-25T05:15:05.125Z,5.28
2023-07-25T05:15:38.516Z,3.05
2023-07-25T05:16:10.030Z,3.45
2023-07-25T05:16:41.476Z,3.83
2023-07-25T05:17:12.934Z,4.00
2023-07-25T05:17:44.661Z,3.33
2023-07-25T05:18:16.111Z,3.37
2023-07-25T05:18:47.610Z,3.67
2023-07-25T05:19:19.047Z,3.50
2023-07-25T05:19:51.057Z,3.13
2023-07-25T05:20:22.589Z,3.75
2023-07-25T05:20:54.074Z,3.40
2023-07-25T05:21:25.526Z,3.22
2023-07-25T05:21:59.299Z,3.00
2023-07-25T05:22:30.742Z,3.45
2023-07-25T05:23:02.503Z,3.83
2023-07-25T05:23:33.996Z,3.60
2023-07-25T05:24:05.722Z,3.03
2023-07-25T05:24:37.377Z,3.50
2023-07-25T05:25:09.387Z,3.40
2023-07-25T05:25:40.960Z,3.88
2023-07-25T05:26:12.343Z,4.22
2023-07-25T05:26:43.765Z,3.38
2023-07-25T05:27:16.302Z,5.07
2023-07-25T05:27:47.799Z,3.10
2023-07-25T05:28:20.024Z,3.42
2023-07-25T05:28:51.512Z,2.63
2023-07-25T05:29:22.953Z,3.22
2023-07-25T05:29:54.474Z,2.67
2023-07-25T05:30:26.007Z,3.88
2023-07-25T05:30:57.729Z,3.20
2023-07-25T05:31:29.476Z,3.80
2023-07-25T05:32:01.262Z,2.90
2023-07-25T05:32:34.217Z,3.50
2023-07-25T05:33:08.066Z,2.92
2023-07-25T05:33:39.470Z,3.58
2023-07-25T05:34:11.159Z,2.93
2023-07-25T05:34:42.641Z,3.20
2023-07-25T05:35:14.121Z,3.78
2023-07-25T05:35:45.511Z,4.22
2023-07-25T05:36:16.923Z,3.22
2023-07-25T05:36:48.413Z,3.17
2023-07-25T05:37:20.102Z,3.72
2023-07-25T05:37:51.597Z,3.38
2023-07-25T05:38:23.161Z,3.72
2023-07-25T05:38:54.571Z,3.45
2023-07-25T05:39:25.961Z,3.00
2023-07-25T05:39:59.817Z,3.40
2023-07-25T05:40:31.229Z,3.83
2023-07-25T05:41:03.587Z,3.28
2023-07-25T05:41:35.058Z,3.55
2023-07-25T05:42:06.897Z,3.28
2023-07-25T05:42:38.306Z,2.35
2023-07-25T05:43:12.030Z,3.10
2023-07-25T05:43:43.501Z,3.78
2023-07-25T05:44:14.981Z,3.00
2023-07-25T05:44:46.580Z,2.67
2023-07-25T05:45:18.044Z,2.95
2023-07-25T05:45:49.557Z,3.42
2023-07-25T05:46:21.023Z,4.13
2023-07-25T05:46:52.510Z,3.78
2023-07-25T05:47:23.997Z,3.75
2023-07-25T05:47:55.516Z,2.85
2023-07-25T05:48:27.202Z,2.83
2023-07-25T05:48:58.706Z,3.63
2023-07-25T05:49:30.225Z,3.80
2023-07-25T05:50:02.017Z,3.50
2023-07-25T05:50:33.479Z,2.90
2023-07-25T05:51:05.012Z,2.60
2023-07-25T05:51:36.390Z,3.38
2023-07-25T05:52:08.103Z,3.28
2023-07-25T05:52:39.564Z,3.75
2023-07-25T05:53:11.051Z,3.42
2023-07-25T05:53:42.583Z,3.60
2023-07-25T05:54:16.647Z,2.72
2023-07-25T05:54:50.055Z,2.60
2023-07-25T05:55:21.523Z,3.50
2023-07-25T05:55:52.994Z,3.20
2023-07-25T05:56:24.440Z,2.75
2023-07-25T05:56:56.050Z,2.95
2023-07-25T05:57:27.537Z,3.40
2023-07-25T05:57:58.977Z,3.38
2023-07-25T05:58:30.897Z,2.65
2023-07-25T05:59:02.374Z,3.30
2023-07-25T05:59:33.806Z,3.00
2023-07-25T06:00:08.233Z,3.35
2023-07-25T06:00:39.932Z,3.00
2023-07-25T06:01:11.433Z,3.95
2023-07-25T06:01:42.994Z,3.08
2023-07-25T06:02:14.546Z,3.13
2023-07-25T06:02:46.126Z,3.05
2023-07-25T06:03:18.171Z,3.30
2023-07-25T06:03:49.941Z,2.85
2023-07-25T06:04:21.394Z,2.47
2023-07-25T06:04:52.801Z,3.10
2023-07-25T06:05:24.212Z,3.00
2023-07-25T06:05:55.718Z,2.43
2023-07-25T06:06:27.444Z,3.08
2023-07-25T06:06:58.861Z,3.63
2023-07-25T06:07:30.329Z,3.15
2023-07-25T06:08:01.749Z,3.00
2023-07-25T06:08:33.202Z,2.95
2023-07-25T06:09:04.974Z,3.38
2023-07-25T06:09:36.400Z,2.90
2023-07-25T06:10:08.429Z,3.28
2023-07-25T06:10:40.340Z,3.17
2023-07-25T06:11:11.864Z,3.03
2023-07-25T06:11:43.494Z,3.42
2023-07-25T06:12:15.187Z,2.60
2023-07-25T06:12:46.617Z,4.63
2023-07-25T06:13:18.062Z,2.72
2023-07-25T06:13:50.726Z,2.63
2023-07-25T06:14:22.720Z,2.75
2023-07-25T06:14:54.230Z,3.45
2023-07-25T06:15:25.892Z,3.28
2023-07-25T06:15:57.403Z,3.47
2023-07-25T06:16:28.905Z,2.60
2023-07-25T06:17:00.393Z,2.40
2023-07-25T06:17:31.897Z,2.92
2023-07-25T06:18:04.983Z,2.63
2023-07-25T06:18:36.520Z,2.67
2023-07-25T06:19:07.953Z,2.45
2023-07-25T06:19:39.390Z,2.78
2023-07-25T06:20:12.146Z,3.05
2023-07-25T06:20:43.588Z,2.65
2023-07-25T06:21:14.995Z,2.83
2023-07-25T06:21:46.430Z,2.23
2023-07-25T06:22:17.917Z,2.55
2023-07-25T06:22:49.374Z,2.50
2023-07-25T06:23:21.866Z,2.38
2023-07-25T06:23:53.337Z,2.83
2023-07-25T06:24:24.953Z,3.03
2023-07-25T06:24:56.587Z,2.38
2023-07-25T06:25:28.460Z,2.58
2023-07-25T06:26:00.015Z,3.17
2023-07-25T06:26:31.548Z,2.85
2023-07-25T06:27:03.178Z,2.20
2023-07-25T06:27:35.087Z,2.55
2023-07-25T06:28:07.146Z,2.40
2023-07-25T06:28:38.594Z,2.33
2023-07-25T06:29:09.975Z,2.38
2023-07-25T06:29:41.506Z,2.00
2023-07-25T06:30:13.093Z,2.22
2023-07-25T06:30:44.718Z,2.90
2023-07-25T06:31:16.307Z,3.03
2023-07-25T06:31:47.990Z,1.88
2023-07-25T06:32:19.502Z,2.03
2023-07-25T06:32:53.694Z,2.58
2023-07-25T06:33:26.558Z,2.40
2023-07-25T06:33:59.571Z,1.77
2023-07-25T06:34:31.014Z,2.35
2023-07-25T06:35:02.416Z,1.98
2023-07-25T06:35:33.909Z,2.13
2023-07-25T06:36:05.490Z,3.05
2023-07-25T06:36:36.996Z,2.05
2023-07-25T06:37:08.720Z,2.03
2023-07-25T06:37:40.311Z,1.80
2023-07-25T06:38:11.765Z,1.90
2023-07-25T06:38:43.202Z,2.28
2023-07-25T06:39:15.083Z,2.30
2023-07-25T06:39:46.483Z,2.15
2023-07-25T06:40:18.029Z,1.63
2023-07-25T06:40:49.572Z,1.70
2023-07-25T06:41:21.019Z,2.30
2023-07-25T06:41:52.432Z,1.63
2023-07-25T06:42:23.936Z,1.55
2023-07-25T06:42:55.428Z,2.63
2023-07-25T06:43:26.979Z,1.75
2023-07-25T06:44:01.239Z,2.40
2023-07-25T06:44:32.705Z,1.92
2023-07-25T06:45:04.372Z,1.60
2023-07-25T06:45:35.836Z,1.77
2023-07-25T06:46:07.484Z,1.40
2023-07-25T06:46:38.939Z,1.77
2023-07-25T06:47:10.446Z,2.15
2023-07-25T06:47:41.907Z,1.40
2023-07-25T06:48:13.508Z,1.53
2023-07-25T06:48:44.933Z,1.52
2023-07-25T06:49:16.365Z,1.80
2023-07-25T06:49:48.038Z,1.30
2023-07-25T06:50:19.595Z,1.90
2023-07-25T06:50:51.038Z,2.05
2023-07-25T06:51:22.652Z,1.38
2023-07-25T06:51:56.708Z,1.70
2023-07-25T06:52:28.359Z,1.50
2023-07-25T06:53:00.347Z,1.45
2023-07-25T06:53:31.728Z,1.30
2023-07-25T06:54:03.259Z,1.73
2023-07-25T06:54:34.719Z,2.05
2023-07-25T06:55:07.384Z,1.77
2023-07-25T06:55:39.390Z,1.60
2023-07-25T06:56:10.851Z,1.27
2023-07-25T06:56:42.343Z,1.83
2023-07-25T06:57:13.789Z,2.33
2023-07-25T06:57:45.276Z,1.42
2023-07-25T06:58:16.750Z,1.38
2023-07-25T06:58:48.373Z,1.37
2023-07-25T06:59:19.809Z,1.75
2023-07-25T06:59:51.785Z,1.98
2023-07-25T07:00:23.199Z,1.65
2023-07-25T07:00:54.709Z,1.27
2023-07-25T07:01:29.216Z,1.10
2023-07-25T07:02:01.321Z,1.65
2023-07-25T07:02:33.168Z,1.92
2023-07-25T07:03:06.250Z,1.85
2023-07-25T07:03:37.868Z,1.27
2023-07-25T07:04:09.285Z,1.00
2023-07-25T07:04:40.954Z,1.17
2023-07-25T07:05:23.836Z,1.63